createdAt,value
2019-03-18T00:03:16.558Z,1.50
2019-03-18T00:08:21.317Z,1.40
2019-03-18T00:13:26.156Z,1.30
2019-03-18T00:18:30.758Z,1.30
2019-03-18T00:23:35.506Z,1.30
2019-03-18T00:28:40.378Z,1.30
2019-03-18T00:33:47.265Z,1.10
2019-03-18T00:38:51.658Z,1.00
2019-03-18T00:44:00.905Z,1.00
2019-03-18T00:49:05.634Z,0.90
2019-03-18T00:54:10.608Z,1.00
2019-03-18T00:59:15.403Z,1.00
2019-03-18T01:04:20.410Z,0.80
2019-03-18T01:09:25.544Z,0.70
2019-03-18T01:14:30.040Z,0.70
2019-03-18T01:19:34.459Z,0.50
2019-03-18T01:24:39.905Z,0.40
2019-03-18T01:29:44.270Z,0.40
2019-03-18T01:34:48.797Z,0.30
2019-03-18T01:39:53.635Z,0.30
2019-03-18T01:44:59.273Z,0.30
2019-03-18T01:50:04.047Z,0.50
2019-03-18T01:55:08.837Z,0.50
2019-03-18T02:00:14.875Z,0.50
2019-03-18T02:05:19.592Z,0.50
2019-03-18T02:10:24.497Z,0.50
2019-03-18T02:15:29.324Z,0.50
2019-03-18T02:20:34.201Z,0.70
2019-03-18T02:25:38.583Z,1.00
2019-03-18T02:30:43.588Z,1.10
2019-03-18T02:35:48.782Z,1.00
2019-03-18T02:40:53.991Z,0.90
2019-03-18T02:46:09.999Z,1.00
2019-03-18T02:51:06.522Z,0.80
2019-03-18T02:56:11.873Z,0.80
2019-03-18T03:01:16.905Z,0.70
2019-03-18T03:06:21.900Z,0.60
2019-03-18T03:11:27.101Z,0.80
2019-03-18T03:16:32.102Z,0.90
2019-03-18T03:21:37.272Z,1.20
2019-03-18T03:26:42.190Z,1.20
2019-03-18T03:31:47.529Z,1.20
2019-03-18T03:36:52.759Z,1.40
2019-03-18T03:41:57.325Z,1.40
2019-03-18T03:47:02.041Z,1.50
2019-03-18T03:52:07.155Z,1.60
2019-03-18T03:57:11.955Z,1.70
2019-03-18T04:02:18.308Z,1.80
2019-03-18T04:07:22.772Z,1.90
2019-03-18T04:12:27.088Z,1.90
2019-03-18T04:17:32.099Z,2.00
2019-03-18T04:22:37.299Z,2.00
2019-03-18T04:27:41.613Z,2.10
2019-03-18T04:32:46.039Z,2.10
2019-03-18T04:37:53.475Z,2.20
2019-03-18T04:42:58.449Z,2.30
2019-03-18T04:48:03.206Z,2.20
2019-03-18T04:53:08.755Z,2.20
2019-03-18T04:58:14.473Z,2.20
2019-03-18T05:03:20.211Z,2.10
2019-03-18T05:08:25.710Z,1.90
2019-03-18T05:13:31.142Z,1.60
2019-03-18T05:18:36.783Z,1.30
2019-03-18T05:23:41.547Z,1.20
2019-03-18T05:28:46.700Z,1.20
2019-03-18T05:33:52.288Z,1.20
2019-03-18T05:38:57.913Z,1.10
2019-03-18T05:44:03.432Z,1.20
2019-03-18T05:49:08.174Z,1.40
2019-03-18T05:54:13.403Z,1.50
2019-03-18T05:59:18.358Z,1.60
2019-03-18T06:04:24.345Z,1.70
2019-03-18T06:09:29.270Z,1.70
2019-03-18T06:14:34.128Z,1.80
2019-03-18T06:19:38.926Z,1.80
2019-03-18T06:24:46.233Z,1.70
2019-03-18T06:29:50.675Z,1.60
2019-03-18T06:34:56.292Z,1.60
2019-03-18T06:40:01.524Z,1.70
2019-03-18T06:45:06.680Z,2.30
2019-03-18T06:50:12.080Z,5.20
2019-03-18T06:55:17.218Z,8.30
2019-03-18T07:00:22.132Z,6.80
2019-03-18T07:05:29.147Z,5.00
2019-03-18T07:10:34.144Z,4.00
2019-03-18T07:15:39.006Z,3.60
2019-03-18T07:20:44.829Z,3.50
2019-03-18T07:25:50.095Z,3.60
2019-03-18T07:30:54.936Z,3.70
2019-03-18T07:35:59.764Z,3.80
2019-03-18T07:41:04.454Z,4.70
2019-03-18T07:46:09.375Z,5.70
2019-03-18T07:51:15.781Z,5.80
2019-03-18T07:56:20.529Z,5.50
2019-03-18T08:01:25.659Z,7.90
2019-03-18T08:06:31.355Z,10.30
2019-03-18T08:11:35.859Z,12.50
2019-03-18T08:16:40.231Z,12.60
2019-03-18T08:21:45.014Z,10.70
2019-03-18T08:26:49.879Z,8.60
2019-03-18T08:31:54.823Z,7.30
2019-03-18T08:36:59.698Z,6.80
2019-03-18T08:42:06.032Z,7.20
2019-03-18T08:47:11.551Z,6.80
2019-03-18T08:52:16.833Z,7.60
2019-03-18T08:57:21.677Z,7.30
2019-03-18T09:02:26.696Z,7.10
2019-03-18T09:07:31.718Z,7.20
2019-03-18T09:12:38.163Z,7.50
2019-03-18T09:17:43.027Z,7.50
2019-03-18T09:22:51.334Z,6.70
2019-03-18T09:27:56.297Z,7.50
2019-03-18T09:33:01.099Z,7.70
2019-03-18T09:38:07.070Z,6.70
2019-03-18T09:43:12.309Z,8.20
2019-03-18T09:48:17.725Z,11.80
2019-03-18T09:53:22.291Z,10.50
2019-03-18T09:58:29.286Z,9.40
2019-03-18T10:03:33.658Z,8.00
2019-03-18T10:08:38.151Z,6.60
2019-03-18T10:13:42.617Z,6.00
2019-03-18T10:18:47.252Z,6.30
2019-03-18T10:23:57.435Z,7.60
2019-03-18T10:29:02.038Z,8.00
2019-03-18T10:34:06.381Z,7.30
2019-03-18T10:39:11.155Z,5.90
2019-03-18T10:44:16.992Z,5.40
2019-03-18T10:49:22.353Z,6.80
2019-03-18T10:54:31.113Z,7.60
2019-03-18T10:59:35.936Z,7.40
2019-03-18T11:04:40.638Z,7.90
2019-03-18T11:09:45.434Z,8.00
2019-03-18T11:14:50.826Z,8.10
2019-03-18T11:19:58.741Z,8.30
2019-03-18T11:25:02.769Z,8.90
2019-03-18T11:30:08.041Z,8.40
2019-03-18T11:35:12.757Z,8.10
2019-03-18T11:40:18.222Z,8.00
2019-03-18T11:45:25.002Z,7.90
2019-03-18T11:50:31.943Z,7.80
2019-03-18T11:55:37.286Z,7.50
2019-03-18T12:00:42.500Z,8.70
2019-03-18T12:05:47.502Z,9.80
2019-03-18T12:10:52.584Z,9.70
2019-03-18T12:15:57.107Z,9.80
2019-03-18T12:21:02.752Z,10.40
2019-03-18T12:26:07.699Z,11.50
2019-03-18T12:31:15.699Z,11.70
2019-03-18T12:36:21.993Z,11.30
2019-03-18T12:41:27.621Z,10.90
2019-03-18T12:46:35.178Z,10.00
2019-03-18T12:51:39.938Z,9.40
2019-03-18T12:56:44.996Z,9.20
2019-03-18T13:01:49.549Z,9.10
2019-03-18T13:06:57.441Z,9.10
2019-03-18T13:12:02.936Z,9.20
2019-03-18T13:17:08.895Z,9.60
2019-03-18T13:22:14.007Z,9.90
2019-03-18T13:27:18.963Z,9.90
2019-03-18T13:32:23.704Z,9.80
2019-03-18T13:37:28.450Z,10.80
2019-03-18T13:42:42.240Z,11.20
2019-03-18T13:47:47.247Z,10.80
2019-03-18T13:52:51.831Z,10.00
2019-03-18T13:57:56.874Z,9.60
2019-03-18T14:03:03.440Z,9.10
2019-03-18T14:08:09.264Z,8.70
2019-03-18T14:13:14.420Z,8.70
2019-03-18T14:18:19.138Z,9.40
2019-03-18T14:23:24.052Z,9.90
2019-03-18T14:28:30.428Z,10.10
2019-03-18T14:33:39.770Z,9.80
2019-03-18T14:38:44.453Z,9.30
2019-03-18T14:43:48.915Z,8.40
2019-03-18T14:48:55.761Z,7.50
2019-03-18T14:54:00.171Z,6.60
2019-03-18T14:59:04.864Z,6.30
2019-03-18T15:04:16.835Z,6.60
2019-03-18T15:09:23.575Z,6.80
2019-03-18T15:14:30.236Z,6.80
2019-03-18T15:19:35.639Z,6.70
2019-03-18T15:24:40.408Z,6.30
2019-03-18T15:29:48.310Z,6.10
2019-03-18T15:34:53.025Z,6.70
2019-03-18T15:39:57.700Z,6.90
2019-03-18T15:45:05.439Z,6.70
2019-03-18T15:50:13.141Z,6.40
2019-03-18T15:55:18.399Z,6.00
2019-03-18T16:00:28.196Z,6.10
2019-03-18T16:05:36.836Z,6.10
2019-03-18T16:10:57.094Z,6.00
2019-03-18T16:16:05.758Z,5.90
2019-03-18T16:21:10.763Z,6.10
2019-03-18T16:26:16.184Z,6.30
2019-03-18T16:31:22.192Z,6.30
2019-03-18T16:36:27.314Z,6.20
2019-03-18T16:41:32.599Z,6.00
2019-03-18T16:46:38.692Z,5.50
2019-03-18T16:51:45.224Z,5.10
2019-03-18T16:56:51.457Z,4.90
2019-03-18T17:01:57.996Z,4.60
2019-03-18T17:07:02.832Z,4.40
2019-03-18T17:12:07.376Z,4.20
2019-03-18T17:17:18.982Z,4.10
2019-03-18T17:22:25.797Z,3.90
2019-03-18T17:27:32.036Z,3.80
2019-03-18T17:32:40.046Z,3.60
2019-03-18T17:37:49.506Z,3.50
2019-03-18T17:42:54.901Z,3.30
2019-03-18T17:47:59.657Z,3.20
2019-03-18T17:53:04.483Z,3.00
2019-03-18T17:58:09.408Z,2.80
2019-03-18T18:03:14.147Z,2.60
2019-03-18T18:08:20.799Z,2.50
2019-03-18T18:13:26.992Z,2.40
2019-03-18T18:18:33.285Z,2.30
2019-03-18T18:23:38.695Z,2.30
2019-03-18T18:28:44.035Z,2.50
2019-03-18T18:33:56.431Z,2.50
2019-03-18T18:39:03.406Z,2.60
2019-03-18T18:44:12.472Z,2.50
2019-03-18T18:49:17.019Z,2.50
2019-03-18T18:54:22.436Z,2.50
2019-03-18T18:59:31.650Z,2.30
2019-03-18T19:04:37.227Z,2.30
2019-03-18T19:09:49.006Z,2.10
2019-03-18T19:14:55.539Z,2.00
2019-03-18T19:20:03.675Z,1.80
2019-03-18T19:25:10.765Z,1.60
2019-03-18T19:30:19.099Z,1.70
2019-03-18T19:35:24.379Z,1.80
2019-03-18T19:40:29.729Z,2.10
2019-03-18T19:45:36.844Z,2.20
2019-03-18T19:50:42.836Z,2.40
2019-03-18T19:55:47.832Z,2.50
2019-03-18T20:00:53.870Z,2.50
2019-03-18T20:05:58.690Z,2.50
2019-03-18T20:11:03.931Z,2.40
2019-03-18T20:16:09.481Z,2.40
2019-03-18T20:21:14.159Z,2.40
2019-03-18T20:26:20.835Z,2.40
2019-03-18T20:31:26.996Z,2.40
2019-03-18T20:36:32.199Z,2.50
2019-03-18T20:41:37.255Z,2.60
2019-03-18T20:46:47.834Z,2.70
2019-03-18T20:51:57.188Z,2.70
2019-03-18T20:57:04.663Z,2.70
2019-03-18T21:02:10.166Z,2.60
2019-03-18T21:07:17.014Z,2.40
2019-03-18T21:12:23.884Z,2.30
2019-03-18T21:17:32.545Z,2.10
2019-03-18T21:22:38.064Z,1.80
2019-03-18T21:27:43.814Z,1.60
2019-03-18T21:32:49.871Z,1.30
2019-03-18T21:37:56.080Z,1.20
2019-03-18T21:43:02.071Z,1.10
2019-03-18T21:48:08.851Z,1.00
2019-03-18T21:53:13.264Z,0.90
2019-03-18T21:58:18.372Z,0.90
2019-03-18T22:03:23.795Z,0.70
2019-03-18T22:08:30.710Z,0.60
2019-03-18T22:13:38.359Z,0.50
2019-03-18T22:18:44.389Z,0.50
2019-03-18T22:23:49.555Z,0.40
2019-03-18T22:28:54.012Z,0.30
2019-03-18T22:33:59.071Z,0.20
2019-03-18T22:39:05.714Z,0.10
2019-03-18T22:44:10.157Z,0.20
2019-03-18T22:49:15.110Z,0.30
2019-03-18T22:54:19.667Z,0.30
2019-03-18T22:59:24.759Z,0.20
2019-03-18T23:04:29.995Z,0.10
2019-03-18T23:09:41.094Z,-0.10
2019-03-18T23:14:45.771Z,-0.30
2019-03-18T23:19:51.733Z,-0.30
2019-03-18T23:25:06.692Z,-0.50
2019-03-18T23:30:03.408Z,-0.60
2019-03-18T23:35:08.300Z,-0.60
2019-03-18T23:40:13.321Z,-0.70
2019-03-18T23:45:17.783Z,-0.70
2019-03-18T23:50:22.643Z,-0.70
2019-03-18T23:55:27.750Z,-0.60
